createdAt,value
2019-03-08T00:00:03.082Z,29.00
2019-03-08T00:00:43.445Z,32.25
2019-03-08T00:01:23.769Z,37.55
2019-03-08T00:01:56.802Z,30.45
2019-03-08T00:02:29.791Z,38.63
2019-03-08T00:03:02.923Z,35.20
2019-03-08T00:03:35.922Z,28.83
2019-03-08T00:04:08.983Z,33.78
2019-03-08T00:04:41.921Z,31.97
2019-03-08T00:05:15.009Z,34.13
2019-03-08T00:05:48.352Z,33.67
2019-03-08T00:06:21.427Z,32.80
2019-03-08T00:06:54.333Z,30.95
2019-03-08T00:07:27.488Z,38.08
2019-03-08T00:08:00.478Z,31.57
2019-03-08T00:08:33.528Z,29.40
2019-03-08T00:09:08.966Z,35.55
2019-03-08T00:09:43.746Z,30.97
2019-03-08T00:10:16.877Z,29.12
2019-03-08T00:10:49.937Z,29.52
2019-03-08T00:11:23.273Z,30.43
2019-03-08T00:11:57.385Z,30.62
2019-03-08T00:12:32.282Z,32.87
2019-03-08T00:13:05.499Z,34.13
2019-03-08T00:13:38.931Z,31.37
2019-03-08T00:14:11.991Z,31.57
2019-03-08T00:14:45.034Z,29.90
2019-03-08T00:15:18.101Z,29.25
2019-03-08T00:15:50.998Z,33.15
2019-03-08T00:16:23.935Z,34.80
2019-03-08T00:16:56.830Z,33.28
2019-03-08T00:17:29.880Z,35.88
2019-03-08T00:18:02.981Z,33.83
2019-03-08T00:18:35.961Z,33.95
2019-03-08T00:19:10.275Z,40.05
2019-03-08T00:19:43.283Z,32.20
2019-03-08T00:20:16.256Z,37.55
2019-03-08T00:20:49.299Z,33.98
2019-03-08T00:21:22.302Z,36.03
2019-03-08T00:21:55.090Z,33.23
2019-03-08T00:26:04.323Z,36.48
2019-03-08T00:26:37.477Z,37.58
2019-03-08T00:27:10.511Z,33.30
2019-03-08T00:27:43.538Z,34.60
2019-03-08T00:28:18.206Z,37.70
2019-03-08T00:28:51.393Z,35.60
2019-03-08T00:29:24.269Z,40.75
2019-03-08T00:29:57.307Z,36.80
2019-03-08T00:30:30.360Z,34.48
2019-03-08T00:31:03.408Z,36.23
2019-03-08T00:31:36.398Z,37.45
2019-03-08T00:32:09.444Z,35.50
2019-03-08T00:32:42.568Z,36.93
2019-03-08T00:33:15.602Z,42.38
2019-03-08T00:33:48.574Z,40.90
2019-03-08T00:34:21.733Z,34.40
2019-03-08T00:34:54.642Z,37.28
2019-03-08T00:35:27.708Z,43.85
2019-03-08T00:36:00.704Z,43.08
2019-03-08T00:36:33.761Z,36.25
2019-03-08T00:37:06.756Z,42.50
2019-03-08T00:41:08.131Z,38.17
2019-03-08T00:41:41.776Z,34.67
2019-03-08T00:42:15.159Z,39.98
2019-03-08T00:42:48.178Z,35.35
2019-03-08T00:43:21.645Z,40.38
2019-03-08T00:43:54.617Z,33.23
2019-03-08T00:44:27.674Z,35.17
2019-03-08T00:45:00.802Z,35.28
2019-03-08T00:45:34.062Z,34.13
2019-03-08T00:46:06.908Z,30.92
2019-03-08T00:46:39.946Z,40.20
2019-03-08T00:47:15.926Z,45.73
2019-03-08T00:47:50.520Z,41.63
2019-03-08T00:48:25.011Z,37.75
2019-03-08T00:48:57.936Z,38.67
2019-03-08T00:49:31.121Z,36.95
2019-03-08T00:50:04.836Z,39.35
2019-03-08T00:50:37.904Z,34.18
2019-03-08T00:51:10.873Z,35.28
2019-03-08T00:51:43.821Z,39.85
2019-03-08T00:52:16.841Z,39.05
2019-03-08T00:55:51.219Z,42.70
2019-03-08T00:56:24.142Z,42.80
2019-03-08T00:56:57.262Z,43.17
2019-03-08T00:57:30.367Z,35.90
2019-03-08T00:58:03.556Z,37.20
2019-03-08T00:58:36.521Z,42.90
2019-03-08T00:59:09.430Z,41.50
2019-03-08T00:59:42.345Z,41.88
2019-03-08T01:00:16.547Z,41.42
2019-03-08T01:00:49.608Z,32.95
2019-03-08T01:01:22.678Z,43.52
2019-03-08T01:01:55.532Z,40.35
2019-03-08T01:02:28.509Z,35.98
2019-03-08T01:03:01.615Z,37.00
2019-03-08T01:03:34.840Z,37.15
2019-03-08T01:04:07.853Z,41.85
2019-03-08T01:04:40.868Z,34.33
2019-03-08T01:05:15.023Z,43.25
2019-03-08T01:05:47.950Z,39.15
2019-03-08T01:06:20.999Z,40.73
2019-03-08T01:06:53.922Z,41.18
2019-03-08T01:07:27.100Z,42.25
2019-03-08T01:10:54.771Z,36.48
2019-03-08T01:11:28.094Z,37.70
2019-03-08T01:12:01.120Z,42.85
2019-03-08T01:12:34.162Z,38.60
2019-03-08T01:13:07.508Z,49.80
2019-03-08T01:13:40.557Z,34.78
2019-03-08T01:14:13.978Z,41.28
2019-03-08T01:14:47.066Z,42.15
2019-03-08T01:15:20.179Z,38.38
2019-03-08T01:15:54.153Z,34.10
2019-03-08T01:16:27.180Z,32.83
2019-03-08T01:17:00.244Z,37.65
2019-03-08T01:17:33.307Z,40.98
2019-03-08T01:18:06.393Z,37.10
2019-03-08T01:18:39.547Z,40.23
2019-03-08T01:19:12.500Z,35.95
2019-03-08T01:19:45.556Z,43.00
2019-03-08T01:20:20.218Z,37.25
2019-03-08T01:20:53.283Z,32.00
2019-03-08T01:21:26.283Z,27.22
2019-03-08T01:21:59.380Z,39.20
2019-03-08T01:22:32.544Z,44.27
2019-03-08T01:25:31.160Z,38.33
2019-03-08T01:26:04.583Z,37.83
2019-03-08T01:26:37.593Z,37.28
2019-03-08T01:27:10.521Z,32.90
2019-03-08T01:28:03.166Z,45.63
2019-03-08T01:28:36.790Z,43.50
2019-03-08T01:29:10.198Z,37.70
2019-03-08T01:29:43.132Z,40.52
2019-03-08T01:30:16.473Z,39.90
2019-03-08T01:30:49.507Z,44.80
2019-03-08T01:31:23.381Z,38.28
2019-03-08T01:31:56.422Z,41.63
2019-03-08T01:32:29.710Z,30.43
2019-03-08T01:33:02.975Z,41.08
2019-03-08T01:33:35.968Z,32.78
2019-03-08T01:34:08.990Z,31.15
2019-03-08T01:34:42.220Z,42.80
2019-03-08T01:35:15.278Z,40.33
2019-03-08T01:35:48.272Z,42.20
2019-03-08T01:36:21.225Z,39.92
2019-03-08T01:36:54.218Z,39.67
2019-03-08T01:37:27.081Z,41.00
2019-03-08T01:39:54.063Z,41.53
2019-03-08T01:40:27.672Z,39.67
2019-03-08T01:41:00.761Z,38.60
2019-03-08T01:41:33.818Z,35.40
2019-03-08T01:42:06.787Z,42.27
2019-03-08T01:42:39.819Z,39.40
2019-03-08T01:43:12.720Z,40.75
2019-03-08T01:43:45.680Z,42.10
2019-03-08T01:44:18.457Z,38.90
2019-03-08T01:44:51.659Z,35.68
2019-03-08T01:45:24.652Z,44.75
2019-03-08T01:45:57.701Z,42.53
2019-03-08T01:46:30.808Z,40.05
2019-03-08T01:47:03.863Z,43.65
2019-03-08T01:47:36.758Z,37.58
2019-03-08T01:48:09.585Z,40.23
2019-03-08T01:48:42.883Z,40.88
2019-03-08T01:49:15.879Z,39.48
2019-03-08T01:49:48.887Z,47.78
2019-03-08T01:50:21.890Z,35.28
2019-03-08T01:50:54.897Z,45.78
2019-03-08T01:51:27.903Z,41.88
2019-03-08T01:52:00.937Z,51.00
2019-03-08T01:52:33.971Z,44.53
2019-03-08T01:54:50.831Z,39.42
2019-03-08T01:55:24.013Z,38.10
2019-03-08T01:55:58.700Z,41.23
2019-03-08T01:56:31.898Z,35.00
2019-03-08T01:57:04.860Z,41.68
2019-03-08T01:57:38.159Z,34.18
2019-03-08T01:58:12.781Z,42.60
2019-03-08T01:58:46.098Z,40.80
2019-03-08T01:59:19.215Z,44.90
2019-03-08T01:59:52.335Z,30.82
2019-03-08T02:00:25.453Z,34.48
2019-03-08T02:00:58.431Z,36.00
2019-03-08T02:01:31.658Z,34.90
2019-03-08T02:02:04.655Z,37.13
2019-03-08T02:02:37.692Z,34.43
2019-03-08T02:03:10.722Z,46.98
2019-03-08T02:03:43.756Z,32.58
2019-03-08T02:04:16.647Z,36.08
2019-03-08T02:04:49.657Z,37.25
2019-03-08T02:05:22.666Z,37.45
2019-03-08T02:05:55.685Z,37.15
2019-03-08T02:06:28.603Z,41.80
2019-03-08T02:07:01.690Z,42.20
2019-03-08T02:07:34.579Z,42.78
2019-03-08T02:09:50.135Z,47.67
2019-03-08T02:10:23.142Z,40.50
2019-03-08T02:10:56.074Z,38.58
2019-03-08T02:11:29.375Z,31.23
2019-03-08T02:12:02.505Z,39.10
2019-03-08T02:12:35.517Z,51.33
2019-03-08T02:13:08.550Z,39.45
2019-03-08T02:13:41.667Z,43.00
2019-03-08T02:14:16.162Z,35.43
2019-03-08T02:14:49.173Z,42.80
2019-03-08T02:15:22.211Z,46.68
2019-03-08T02:15:55.405Z,36.53
2019-03-08T02:16:28.228Z,45.50
2019-03-08T02:17:01.201Z,45.30
2019-03-08T02:17:34.284Z,34.90
2019-03-08T02:18:07.291Z,42.35
2019-03-08T02:18:40.315Z,43.17
2019-03-08T02:19:13.232Z,37.53
2019-03-08T02:19:46.253Z,39.65
2019-03-08T02:20:20.473Z,43.40
2019-03-08T02:20:53.498Z,46.15
2019-03-08T02:21:26.486Z,38.40
2019-03-08T02:21:59.576Z,40.45
2019-03-08T02:22:32.484Z,44.13
2019-03-08T02:24:47.397Z,42.23
2019-03-08T02:25:20.512Z,32.17
2019-03-08T02:25:53.690Z,48.83
2019-03-08T02:26:27.795Z,41.28
2019-03-08T02:27:00.860Z,40.28
2019-03-08T02:27:33.865Z,40.95
2019-03-08T02:28:08.546Z,44.33
2019-03-08T02:28:41.493Z,38.25
2019-03-08T02:29:14.300Z,41.28
2019-03-08T02:29:47.299Z,37.88
2019-03-08T02:30:21.221Z,42.80
2019-03-08T02:30:54.214Z,41.77
2019-03-08T02:31:27.198Z,35.88
2019-03-08T02:32:01.126Z,37.65
2019-03-08T02:32:33.900Z,38.15
2019-03-08T02:33:07.293Z,37.85
2019-03-08T02:33:40.324Z,41.77
2019-03-08T02:34:13.518Z,40.05
2019-03-08T02:34:46.403Z,29.23
2019-03-08T02:35:19.846Z,41.53
2019-03-08T02:35:52.850Z,46.25
2019-03-08T02:36:25.911Z,43.70
2019-03-08T02:36:58.807Z,29.63
2019-03-08T02:37:31.608Z,45.83
2019-03-08T02:39:51.031Z,39.85
2019-03-08T02:40:27.794Z,43.08
2019-03-08T02:41:00.688Z,30.80
2019-03-08T02:41:33.717Z,33.63
2019-03-08T02:42:06.879Z,38.08
2019-03-08T02:42:39.879Z,37.93
2019-03-08T02:43:15.887Z,36.10
2019-03-08T02:43:48.932Z,39.03
2019-03-08T02:44:21.938Z,39.13
2019-03-08T02:44:54.967Z,30.27
2019-03-08T02:45:29.089Z,43.75
2019-03-08T02:46:02.118Z,48.00
2019-03-08T02:46:35.133Z,38.02
2019-03-08T02:47:08.261Z,37.42
2019-03-08T02:47:41.256Z,37.50
2019-03-08T02:48:14.331Z,37.60
2019-03-08T02:48:47.348Z,37.67
2019-03-08T02:49:20.436Z,41.53
2019-03-08T02:49:53.460Z,39.92
2019-03-08T02:50:26.392Z,45.98
2019-03-08T02:50:59.517Z,32.65
2019-03-08T02:51:32.464Z,40.23
2019-03-08T02:52:05.440Z,35.63
2019-03-08T02:52:38.516Z,37.40
2019-03-08T02:54:57.364Z,36.13
2019-03-08T02:55:30.369Z,41.35
2019-03-08T02:56:03.355Z,41.80
2019-03-08T02:56:36.379Z,31.85
2019-03-08T02:57:09.420Z,36.73
2019-03-08T02:57:42.418Z,36.35
2019-03-08T02:58:15.502Z,38.90
2019-03-08T02:58:48.534Z,41.33
2019-03-08T02:59:21.442Z,33.02
2019-03-08T02:59:55.808Z,35.10
2019-03-08T03:00:37.024Z,34.67
2019-03-08T03:01:09.928Z,33.50
2019-03-08T03:01:42.920Z,32.50
2019-03-08T03:02:15.946Z,30.23
2019-03-08T03:02:49.030Z,31.17
2019-03-08T03:03:22.001Z,33.08
2019-03-08T03:03:55.346Z,34.90
2019-03-08T03:04:28.270Z,33.15
2019-03-08T03:05:01.718Z,39.98
2019-03-08T03:05:34.730Z,32.15
2019-03-08T03:06:09.672Z,34.70
2019-03-08T03:06:42.887Z,33.35
2019-03-08T03:07:16.024Z,35.45
2019-03-08T03:07:49.031Z,38.45
2019-03-08T03:09:50.027Z,41.18
2019-03-08T03:10:22.974Z,43.70
2019-03-08T03:10:56.005Z,45.52
2019-03-08T03:11:29.033Z,43.95
2019-03-08T03:12:03.142Z,38.20
2019-03-08T03:12:35.940Z,38.28
2019-03-08T03:13:09.038Z,35.05
2019-03-08T03:13:42.088Z,43.55
2019-03-08T03:14:14.996Z,39.50
2019-03-08T03:14:48.050Z,35.28
2019-03-08T03:15:21.216Z,34.13
2019-03-08T03:15:54.210Z,42.65
2019-03-08T03:16:27.426Z,37.93
2019-03-08T03:17:00.900Z,43.98
2019-03-08T03:17:34.153Z,42.35
2019-03-08T03:18:07.174Z,46.05
2019-03-08T03:18:40.508Z,41.75
2019-03-08T03:19:14.629Z,40.85
2019-03-08T03:19:47.660Z,42.53
2019-03-08T03:20:20.729Z,39.30
2019-03-08T03:20:53.620Z,35.88
2019-03-08T03:21:26.679Z,36.28
2019-03-08T03:21:59.600Z,30.05
2019-03-08T03:22:32.552Z,33.63
2019-03-08T03:23:05.420Z,32.73
2019-03-08T03:25:04.254Z,40.10
2019-03-08T03:25:39.121Z,44.98
2019-03-08T03:26:12.096Z,39.90
2019-03-08T03:26:45.214Z,35.05
2019-03-08T03:27:18.283Z,39.63
2019-03-08T03:27:51.852Z,42.60
2019-03-08T03:28:24.734Z,41.20
2019-03-08T03:28:57.712Z,40.28
2019-03-08T03:29:32.032Z,34.35
2019-03-08T03:30:05.838Z,34.23
2019-03-08T03:30:38.789Z,37.73
2019-03-08T03:31:13.369Z,35.88
2019-03-08T03:31:46.285Z,37.48
2019-03-08T03:32:19.346Z,34.83
2019-03-08T03:32:52.279Z,32.28
2019-03-08T03:33:25.239Z,37.05
2019-03-08T03:33:58.195Z,35.48
2019-03-08T03:34:31.202Z,39.60
2019-03-08T03:35:04.634Z,40.23
2019-03-08T03:35:37.736Z,42.20
2019-03-08T03:36:10.733Z,34.88
2019-03-08T03:36:43.716Z,36.40
2019-03-08T03:37:16.791Z,34.50
2019-03-08T03:37:49.967Z,30.30
2019-03-08T03:39:43.881Z,42.13
2019-03-08T03:40:16.939Z,36.90
2019-03-08T03:40:49.962Z,37.67
2019-03-08T03:41:22.918Z,44.65
2019-03-08T03:41:56.000Z,30.48
2019-03-08T03:42:30.214Z,32.28
2019-03-08T03:43:03.934Z,37.20
2019-03-08T03:43:37.022Z,36.80
2019-03-08T03:44:10.060Z,39.33
2019-03-08T03:44:43.324Z,49.23
2019-03-08T03:45:16.732Z,45.25
2019-03-08T03:45:49.810Z,36.20
2019-03-08T03:46:22.994Z,37.55
2019-03-08T03:46:56.020Z,38.02
2019-03-08T03:47:28.958Z,40.58
2019-03-08T03:48:02.023Z,47.90
2019-03-08T03:48:35.172Z,33.33
2019-03-08T03:49:08.180Z,35.20
2019-03-08T03:49:41.262Z,40.30
2019-03-08T03:50:15.024Z,47.62
2019-03-08T03:50:49.173Z,38.65
2019-03-08T03:51:22.050Z,38.48
2019-03-08T03:51:55.249Z,32.53
2019-03-08T03:52:28.057Z,39.75
2019-03-08T03:53:01.364Z,37.15
2019-03-08T03:53:52.422Z,28.47
2019-03-08T03:54:25.235Z,29.15
2019-03-08T03:54:58.354Z,35.30
2019-03-08T03:55:31.364Z,35.30
2019-03-08T03:56:04.382Z,32.55
2019-03-08T03:56:37.514Z,41.60
2019-03-08T03:57:10.436Z,35.35
2019-03-08T03:57:43.430Z,38.33
2019-03-08T03:58:16.222Z,38.23
2019-03-08T03:58:49.152Z,35.65
2019-03-08T03:59:22.084Z,34.20
2019-03-08T03:59:55.274Z,37.48
2019-03-08T04:00:28.367Z,40.00
2019-03-08T04:01:18.704Z,35.52
2019-03-08T04:01:51.610Z,32.17
2019-03-08T04:02:24.526Z,43.05
2019-03-08T04:02:57.557Z,43.58
2019-03-08T04:03:30.614Z,36.93
2019-03-08T04:04:03.687Z,33.28
2019-03-08T04:04:36.912Z,36.58
2019-03-08T04:05:10.093Z,38.00
2019-03-08T04:05:43.083Z,38.20
2019-03-08T04:06:16.108Z,44.10
2019-03-08T04:06:49.023Z,34.90
2019-03-08T04:07:21.938Z,36.70
2019-03-08T04:07:54.844Z,31.80
2019-03-08T04:08:46.210Z,38.70
2019-03-08T04:09:19.164Z,29.05
2019-03-08T04:09:52.297Z,28.42
2019-03-08T04:10:25.204Z,41.42
2019-03-08T04:10:58.140Z,37.40
2019-03-08T04:11:31.160Z,32.98
2019-03-08T04:12:04.186Z,31.68
2019-03-08T04:12:37.206Z,37.93
2019-03-08T04:13:10.264Z,32.80
2019-03-08T04:13:43.179Z,30.57
2019-03-08T04:14:16.259Z,38.90
2019-03-08T04:14:49.198Z,34.05
2019-03-08T04:15:22.385Z,33.73
2019-03-08T04:15:55.452Z,32.60
2019-03-08T04:16:28.404Z,42.20
2019-03-08T04:17:01.548Z,31.85
2019-03-08T04:17:34.605Z,36.80
2019-03-08T04:18:07.975Z,35.80
2019-03-08T04:18:40.920Z,39.63
2019-03-08T04:19:13.993Z,43.87
2019-03-08T04:19:48.745Z,38.33
2019-03-08T04:20:23.062Z,33.67
2019-03-08T04:20:55.936Z,38.80
2019-03-08T04:21:30.114Z,42.62
2019-03-08T04:22:03.281Z,42.20
2019-03-08T04:22:36.335Z,41.45
2019-03-08T04:23:09.312Z,41.77
2019-03-08T04:23:42.358Z,44.13
2019-03-08T04:24:16.900Z,37.50
2019-03-08T04:24:51.396Z,44.65
2019-03-08T04:25:24.372Z,41.60
2019-03-08T04:25:57.482Z,35.28
2019-03-08T04:26:30.448Z,43.25
2019-03-08T04:27:03.558Z,38.60
2019-03-08T04:27:36.602Z,45.28
2019-03-08T04:28:11.125Z,43.08
2019-03-08T04:28:44.171Z,39.45
2019-03-08T04:29:17.249Z,41.08
2019-03-08T04:29:50.174Z,38.78
2019-03-08T04:30:23.177Z,34.50
2019-03-08T04:30:56.080Z,42.43
2019-03-08T04:31:28.902Z,40.60
2019-03-08T04:32:01.931Z,33.65
2019-03-08T04:32:34.724Z,43.60
2019-03-08T04:33:07.722Z,39.60
2019-03-08T04:33:41.726Z,40.23
2019-03-08T04:34:14.743Z,38.48
2019-03-08T04:34:47.786Z,39.70
2019-03-08T04:35:20.831Z,40.55
2019-03-08T04:35:53.750Z,40.05
2019-03-08T04:36:26.791Z,40.95
2019-03-08T04:36:59.681Z,42.25
2019-03-08T04:37:33.105Z,39.75
2019-03-08T04:38:06.110Z,36.23
2019-03-08T04:38:39.116Z,39.03
2019-03-08T04:39:12.100Z,40.95
2019-03-08T04:39:45.374Z,31.02
2019-03-08T04:40:18.289Z,39.27
2019-03-08T04:40:51.418Z,35.28
2019-03-08T04:41:24.421Z,36.48
2019-03-08T04:41:57.456Z,42.65
2019-03-08T04:42:30.352Z,45.33
2019-03-08T04:43:03.466Z,35.25
2019-03-08T04:43:38.082Z,33.58
2019-03-08T04:44:10.984Z,34.67
2019-03-08T04:44:43.874Z,34.90
2019-03-08T04:45:16.911Z,38.00
2019-03-08T04:45:49.862Z,31.60
2019-03-08T04:46:22.902Z,38.23
2019-03-08T04:46:55.941Z,34.65
2019-03-08T04:47:28.760Z,30.82
2019-03-08T04:48:01.786Z,36.75
2019-03-08T04:48:34.737Z,29.12
2019-03-08T04:49:07.661Z,34.35
2019-03-08T04:49:40.574Z,37.23
2019-03-08T04:50:13.922Z,33.85
2019-03-08T04:50:46.830Z,30.77
2019-03-08T04:51:20.058Z,31.40
2019-03-08T04:51:54.082Z,39.30
2019-03-08T04:52:27.320Z,38.00
2019-03-08T04:53:00.279Z,35.28
2019-03-08T04:53:33.467Z,27.98
2019-03-08T04:58:11.852Z,36.63
2019-03-08T04:58:44.777Z,40.12
2019-03-08T04:59:17.834Z,40.90
2019-03-08T04:59:50.636Z,30.90
2019-03-08T05:00:23.935Z,36.83
2019-03-08T05:00:56.922Z,40.95
2019-03-08T05:01:29.960Z,34.73
2019-03-08T05:02:02.866Z,33.90
2019-03-08T05:02:35.826Z,28.98
2019-03-08T05:03:08.734Z,35.58
2019-03-08T05:03:41.816Z,38.42
2019-03-08T05:04:14.709Z,38.90
2019-03-08T05:04:47.744Z,36.60
2019-03-08T05:05:20.672Z,33.45
2019-03-08T05:05:53.836Z,33.25
2019-03-08T05:06:26.638Z,39.50
2019-03-08T05:06:59.683Z,36.03
2019-03-08T05:07:32.678Z,39.92
2019-03-08T05:08:05.529Z,33.40
2019-03-08T05:08:38.541Z,40.50
2019-03-08T05:12:45.924Z,40.33
2019-03-08T05:13:18.920Z,38.85
2019-03-08T05:13:52.082Z,33.55
2019-03-08T05:14:24.958Z,30.90
2019-03-08T05:14:57.910Z,38.67
2019-03-08T05:15:30.869Z,36.98
2019-03-08T05:16:03.859Z,35.98
2019-03-08T05:16:36.738Z,37.28
2019-03-08T05:17:10.590Z,35.35
2019-03-08T05:17:43.658Z,35.33
2019-03-08T05:18:16.668Z,34.63
2019-03-08T05:18:49.668Z,29.57
2019-03-08T05:19:22.694Z,34.25
2019-03-08T05:19:55.794Z,31.23
2019-03-08T05:20:28.840Z,30.62
2019-03-08T05:21:02.139Z,31.45
2019-03-08T05:21:36.712Z,30.17
2019-03-08T05:22:09.898Z,29.27
2019-03-08T05:22:42.838Z,41.13
2019-03-08T05:23:15.721Z,32.70
2019-03-08T05:23:49.710Z,29.65
2019-03-08T05:27:22.484Z,32.98
2019-03-08T05:27:55.532Z,27.42
2019-03-08T05:28:28.324Z,27.87
2019-03-08T05:29:01.684Z,27.48
2019-03-08T05:29:34.658Z,27.87
2019-03-08T05:30:09.160Z,27.20
2019-03-08T05:30:42.048Z,27.05
2019-03-08T05:31:14.995Z,26.23
2019-03-08T05:31:47.878Z,26.07
2019-03-08T05:32:20.830Z,25.92
2019-03-08T05:32:53.626Z,26.00
2019-03-08T05:33:26.708Z,27.65
2019-03-08T05:33:59.526Z,26.80
2019-03-08T05:34:32.494Z,25.88
2019-03-08T05:35:06.181Z,26.87
2019-03-08T05:35:39.176Z,26.60
2019-03-08T05:36:11.935Z,26.57
2019-03-08T05:36:44.984Z,27.10
2019-03-08T05:37:17.961Z,26.57
2019-03-08T05:37:50.998Z,27.05
2019-03-08T05:38:23.898Z,26.57
2019-03-08T05:38:56.830Z,27.30
2019-03-08T05:39:29.824Z,26.55
2019-03-08T05:40:03.153Z,26.75
2019-03-08T05:40:36.241Z,26.60
2019-03-08T05:41:09.243Z,26.62
2019-03-08T05:41:42.118Z,26.65
2019-03-08T05:42:15.324Z,26.70
2019-03-08T05:42:48.499Z,26.93
2019-03-08T05:43:21.550Z,27.17
2019-03-08T05:43:54.724Z,27.07
2019-03-08T05:44:27.524Z,27.17
2019-03-08T05:45:00.827Z,26.73
2019-03-08T05:45:33.767Z,27.00
2019-03-08T05:46:06.774Z,27.37
2019-03-08T05:46:39.802Z,27.22
2019-03-08T05:47:12.604Z,27.70
2019-03-08T05:47:45.671Z,27.58
2019-03-08T05:48:18.574Z,26.90
2019-03-08T05:48:51.562Z,27.45
2019-03-08T05:49:24.463Z,27.50
2019-03-08T05:49:57.266Z,27.05
2019-03-08T05:50:30.286Z,26.93
2019-03-08T05:51:03.413Z,27.93
2019-03-08T05:51:36.380Z,27.48
2019-03-08T05:52:09.359Z,27.48
2019-03-08T05:52:43.367Z,27.55
2019-03-08T05:53:16.206Z,28.15
2019-03-08T05:53:49.276Z,27.90
2019-03-08T05:56:46.504Z,27.95
2019-03-08T05:57:19.428Z,27.77
2019-03-08T05:57:52.336Z,27.17
2019-03-08T05:58:25.282Z,32.33
2019-03-08T05:58:58.282Z,27.40
2019-03-08T05:59:31.140Z,27.48
2019-03-08T06:00:04.821Z,27.75
2019-03-08T06:00:38.208Z,29.32
2019-03-08T06:01:11.046Z,27.67
2019-03-08T06:01:44.053Z,27.02
2019-03-08T06:02:17.380Z,27.87
2019-03-08T06:02:50.510Z,27.42
2019-03-08T06:03:23.747Z,29.63
2019-03-08T06:03:56.657Z,26.62
2019-03-08T06:04:29.810Z,28.65
2019-03-08T06:05:03.289Z,28.95
2019-03-08T06:05:36.212Z,26.33
2019-03-08T06:06:09.224Z,26.55
2019-03-08T06:06:42.310Z,28.38
2019-03-08T06:07:15.202Z,27.62
2019-03-08T06:07:48.036Z,27.82
2019-03-08T06:08:22.136Z,30.62
2019-03-08T06:08:55.106Z,27.95
2019-03-08T06:11:37.838Z,27.93
2019-03-08T06:12:10.854Z,33.23
2019-03-08T06:12:43.740Z,29.12
2019-03-08T06:13:16.751Z,28.47
2019-03-08T06:13:49.732Z,28.05
2019-03-08T06:14:22.644Z,27.10
2019-03-08T06:14:56.966Z,28.77
2019-03-08T06:15:30.102Z,28.57
2019-03-08T06:16:04.247Z,30.32
2019-03-08T06:16:37.215Z,29.92
2019-03-08T06:17:10.315Z,32.60
2019-03-08T06:17:43.168Z,28.47
2019-03-08T06:18:16.271Z,33.63
2019-03-08T06:18:49.291Z,28.27
2019-03-08T06:19:22.323Z,27.65
2019-03-08T06:19:55.420Z,27.73
2019-03-08T06:20:28.429Z,31.77
2019-03-08T06:21:01.348Z,32.03
2019-03-08T06:21:34.317Z,35.03
2019-03-08T06:22:07.305Z,32.63
2019-03-08T06:22:40.200Z,30.25
2019-03-08T06:23:13.237Z,31.68
2019-03-08T06:23:46.237Z,28.95
2019-03-08T06:26:15.187Z,31.77
2019-03-08T06:26:48.070Z,32.15
2019-03-08T06:27:21.007Z,28.23
2019-03-08T06:27:54.105Z,28.05
2019-03-08T06:28:27.148Z,28.77
2019-03-08T06:29:00.132Z,30.60
2019-03-08T06:29:33.044Z,28.27
2019-03-08T06:30:06.072Z,34.60
2019-03-08T06:30:39.860Z,34.73
2019-03-08T06:31:12.750Z,38.92
2019-03-08T06:31:45.708Z,28.50
2019-03-08T06:32:18.614Z,29.52
2019-03-08T06:32:51.778Z,37.78
2019-03-08T06:33:24.777Z,33.53
2019-03-08T06:33:57.803Z,28.77
2019-03-08T06:34:30.796Z,28.95
2019-03-08T06:35:03.961Z,29.92
2019-03-08T06:35:36.986Z,28.62
2019-03-08T06:36:11.488Z,38.80
2019-03-08T06:36:44.481Z,27.48
2019-03-08T06:37:17.531Z,30.05
2019-03-08T06:37:50.751Z,29.35
2019-03-08T06:38:23.676Z,35.23
2019-03-08T06:38:56.992Z,27.87
2019-03-08T06:41:12.383Z,28.52
2019-03-08T06:41:45.298Z,34.05
2019-03-08T06:42:18.422Z,30.77
2019-03-08T06:42:51.419Z,29.27
2019-03-08T06:43:24.405Z,29.35
2019-03-08T06:43:57.290Z,29.35
2019-03-08T06:44:30.296Z,32.45
2019-03-08T06:45:04.345Z,28.67
2019-03-08T06:45:37.269Z,33.18
2019-03-08T06:46:10.278Z,29.20
2019-03-08T06:46:43.242Z,30.77
2019-03-08T06:47:16.220Z,34.73
2019-03-08T06:47:50.314Z,36.65
2019-03-08T06:48:23.223Z,35.55
2019-03-08T06:48:56.170Z,35.05
2019-03-08T06:49:29.268Z,30.25
2019-03-08T06:50:02.539Z,28.98
2019-03-08T06:50:36.520Z,33.85
2019-03-08T06:51:09.614Z,30.15
2019-03-08T06:51:42.413Z,29.87
2019-03-08T06:52:15.388Z,30.12
2019-03-08T06:52:48.406Z,30.50
2019-03-08T06:53:21.354Z,30.40
2019-03-08T06:53:54.360Z,36.42
2019-03-08T06:56:09.806Z,33.30
2019-03-08T06:56:42.710Z,35.08
2019-03-08T06:57:16.072Z,28.35
2019-03-08T06:57:58.886Z,32.98
2019-03-08T06:59:03.543Z,30.40
2019-03-08T06:59:47.700Z,36.85
2019-03-08T07:00:58.786Z,32.67
2019-03-08T07:01:35.202Z,38.70
2019-03-08T07:02:10.098Z,31.85
2019-03-08T07:02:43.088Z,40.63
2019-03-08T07:03:16.002Z,34.63
2019-03-08T07:03:48.886Z,37.53
2019-03-08T07:04:23.249Z,36.50
2019-03-08T07:04:56.168Z,36.08
2019-03-08T07:05:29.200Z,33.80
2019-03-08T07:06:02.200Z,37.10
2019-03-08T07:06:36.282Z,30.17
2019-03-08T07:07:09.192Z,32.00
2019-03-08T07:07:42.376Z,30.60
2019-03-08T07:08:15.370Z,34.73
2019-03-08T07:08:50.408Z,28.07
2019-03-08T07:10:47.401Z,34.15
2019-03-08T07:11:20.411Z,32.90
2019-03-08T07:11:53.308Z,31.57
2019-03-08T07:12:26.348Z,31.65
2019-03-08T07:13:03.131Z,35.55
2019-03-08T07:13:34.167Z,33.33
2019-03-08T07:14:07.068Z,31.68
2019-03-08T07:14:39.931Z,35.30
2019-03-08T07:15:13.074Z,34.58
2019-03-08T07:15:46.414Z,30.48
2019-03-08T07:16:19.337Z,28.57
2019-03-08T07:16:52.294Z,32.48
2019-03-08T07:17:25.312Z,37.55
2019-03-08T07:17:59.934Z,30.52
2019-03-08T07:18:32.916Z,35.80
2019-03-08T07:19:06.048Z,33.95
2019-03-08T07:19:48.746Z,35.38
2019-03-08T07:20:29.547Z,29.15
2019-03-08T07:21:11.691Z,33.20
2019-03-08T07:22:07.189Z,35.00
2019-03-08T07:22:59.646Z,29.32
2019-03-08T07:23:39.595Z,31.87
2019-03-08T07:25:54.865Z,28.73
2019-03-08T07:26:45.789Z,31.65
2019-03-08T07:27:42.512Z,30.60
2019-03-08T07:28:26.798Z,31.02
2019-03-08T07:29:19.335Z,28.52
2019-03-08T07:30:13.102Z,28.70
2019-03-08T07:31:14.822Z,34.95
2019-03-08T07:32:17.662Z,31.55
2019-03-08T07:33:00.442Z,29.40
2019-03-08T07:33:59.564Z,29.00
2019-03-08T07:34:43.980Z,27.95
2019-03-08T07:35:36.654Z,29.00
2019-03-08T07:36:17.882Z,29.85
2019-03-08T07:37:16.142Z,33.00
2019-03-08T07:38:08.842Z,31.00
2019-03-08T07:38:53.428Z,28.83
2019-03-08T07:44:26.226Z,30.35
2019-03-08T07:45:18.770Z,29.37
2019-03-08T07:46:10.230Z,34.15
2019-03-08T07:46:59.524Z,28.52
2019-03-08T07:47:55.111Z,33.88
2019-03-08T07:48:56.892Z,28.83
2019-03-08T07:49:48.237Z,28.90
2019-03-08T07:50:40.937Z,29.50
2019-03-08T07:51:29.328Z,29.12
2019-03-08T07:52:29.328Z,29.40
2019-03-08T07:53:24.709Z,33.33
2019-03-08T07:54:15.934Z,28.38
2019-03-08T07:55:01.718Z,28.25
2019-03-08T07:55:54.992Z,28.02
2019-03-08T07:56:47.616Z,28.17
2019-03-08T07:57:55.580Z,30.82
2019-03-08T07:58:37.686Z,27.90
2019-03-08T07:59:30.833Z,27.45
2019-03-08T08:00:23.525Z,27.07
2019-03-08T08:01:16.237Z,28.05
2019-03-08T08:01:58.182Z,27.40
2019-03-08T08:02:48.979Z,27.80
2019-03-08T08:03:53.666Z,27.15
2019-03-08T08:04:54.224Z,28.38
2019-03-08T08:05:42.342Z,28.67
2019-03-08T08:06:29.708Z,28.27
2019-03-08T08:07:21.070Z,28.02
2019-03-08T08:08:03.384Z,29.10
2019-03-08T08:08:56.110Z,27.67
2019-03-08T08:13:04.905Z,28.85
2019-03-08T08:13:57.464Z,29.27
2019-03-08T08:14:40.252Z,27.80
2019-03-08T08:15:22.487Z,30.80
2019-03-08T08:16:06.761Z,26.82
2019-03-08T08:17:00.940Z,28.15
2019-03-08T08:17:53.264Z,29.15
2019-03-08T08:18:44.572Z,32.40
2019-03-08T08:19:37.086Z,30.88
2019-03-08T08:20:31.098Z,27.80
2019-03-08T08:21:29.710Z,31.75
2019-03-08T08:22:26.154Z,28.05
2019-03-08T08:23:34.265Z,31.82
2019-03-08T08:24:13.998Z,28.25
2019-03-08T08:25:09.576Z,32.58
2019-03-08T08:26:02.132Z,32.93
2019-03-08T08:26:43.420Z,33.53
2019-03-08T08:27:22.930Z,29.25
2019-03-08T08:28:14.424Z,29.20
2019-03-08T08:29:09.880Z,34.63
2019-03-08T08:29:54.764Z,30.10
2019-03-08T08:30:46.192Z,32.63
2019-03-08T08:31:44.267Z,29.75
2019-03-08T08:32:43.159Z,29.70
2019-03-08T08:33:30.581Z,28.98
2019-03-08T08:34:22.058Z,29.32
2019-03-08T08:35:02.309Z,29.82